Terminal Aerodrome Forecast
Issued by NWS

Home | Current Version | Previous Version | Text Only | Print | Product List | Glossary On
Versions: 1 2 3 4 5 6 7 8 9 10 11 12 13 14 15 16 17 18 19 20
824
FTUS46 KEKA 222331
TAFUKI
TAF
KUKI 222331Z 2300/2324 VRB03KT P6SM -SHRA SCT025 OVC060
     FM231000 00000KT 6SM BR SCT010 SCT250
     FM231700 VRB02KT P6SM SCT250=

USA.gov is the U.S. government's official web portal to all federal, state and local government web resources and services.